sensor_id;sensor_type;location;lat;lon;timestamp;P1;durP1;ratioP1;P2;durP2;ratioP2
75603;SDS011;64187;51.010;13.792;2023-04-26T00:01:17;3.50;;;1.80;;
75603;SDS011;64187;51.010;13.792;2023-04-26T00:06:16;3.65;;;1.98;;
75603;SDS011;64187;51.010;13.792;2023-04-26T00:11:15;5.32;;;2.05;;
75603;SDS011;64187;51.010;13.792;2023-04-26T00:16:13;4.55;;;1.88;;
75603;SDS011;64187;51.010;13.792;2023-04-26T00:21:12;3.70;;;2.15;;
75603;SDS011;64187;51.010;13.792;2023-04-26T00:26:11;5.40;;;2.47;;
75603;SDS011;64187;51.010;13.792;2023-04-26T00:31:14;8.18;;;2.30;;
75603;SDS011;64187;51.010;13.792;2023-04-26T00:36:16;3.30;;;2.03;;
75603;SDS011;64187;51.010;13.792;2023-04-26T00:41:16;6.28;;;2.00;;
75603;SDS011;64187;51.010;13.792;2023-04-26T00:46:15;3.53;;;1.88;;
75603;SDS011;64187;51.010;13.792;2023-04-26T00:51:15;3.97;;;2.20;;
75603;SDS011;64187;51.010;13.792;2023-04-26T00:56:14;2.90;;;1.80;;
75603;SDS011;64187;51.010;13.792;2023-04-26T01:01:16;6.28;;;2.55;;
75603;SDS011;64187;51.010;13.792;2023-04-26T01:06:15;3.92;;;1.80;;
75603;SDS011;64187;51.010;13.792;2023-04-26T01:11:15;3.42;;;1.60;;
75603;SDS011;64187;51.010;13.792;2023-04-26T01:16:16;3.83;;;2.03;;
75603;SDS011;64187;51.010;13.792;2023-04-26T01:21:20;9.40;;;2.50;;
75603;SDS011;64187;51.010;13.792;2023-04-26T01:26:20;7.05;;;2.58;;
75603;SDS011;64187;51.010;13.792;2023-04-26T01:31:19;4.15;;;2.13;;
75603;SDS011;64187;51.010;13.792;2023-04-26T01:36:18;7.38;;;2.70;;
75603;SDS011;64187;51.010;13.792;2023-04-26T01:41:17;4.53;;;2.35;;
75603;SDS011;64187;51.010;13.792;2023-04-26T01:46:16;4.47;;;2.47;;
75603;SDS011;64187;51.010;13.792;2023-04-26T01:51:15;5.80;;;2.10;;
75603;SDS011;64187;51.010;13.792;2023-04-26T01:56:14;3.35;;;1.90;;
75603;SDS011;64187;51.010;13.792;2023-04-26T02:01:13;3.83;;;1.83;;
75603;SDS011;64187;51.010;13.792;2023-04-26T02:06:15;5.78;;;2.28;;
75603;SDS011;64187;51.010;13.792;2023-04-26T02:11:15;5.72;;;1.85;;
75603;SDS011;64187;51.010;13.792;2023-04-26T02:16:13;3.72;;;1.95;;
75603;SDS011;64187;51.010;13.792;2023-04-26T02:21:16;6.07;;;2.38;;
75603;SDS011;64187;51.010;13.792;2023-04-26T02:26:18;4.22;;;2.08;;
75603;SDS011;64187;51.010;13.792;2023-04-26T02:31:16;6.88;;;2.40;;
75603;SDS011;64187;51.010;13.792;2023-04-26T02:36:15;6.63;;;2.40;;
75603;SDS011;64187;51.010;13.792;2023-04-26T02:41:14;7.97;;;2.45;;
75603;SDS011;64187;51.010;13.792;2023-04-26T02:46:13;5.28;;;2.30;;
75603;SDS011;64187;51.010;13.792;2023-04-26T02:51:14;5.22;;;2.50;;
75603;SDS011;64187;51.010;13.792;2023-04-26T02:56:13;5.57;;;2.03;;
75603;SDS011;64187;51.010;13.792;2023-04-26T03:01:12;6.78;;;2.55;;
75603;SDS011;64187;51.010;13.792;2023-04-26T03:06:13;4.93;;;2.15;;
75603;SDS011;64187;51.010;13.792;2023-04-26T03:11:12;4.32;;;3.10;;
75603;SDS011;64187;51.010;13.792;2023-04-26T03:16:10;4.85;;;2.20;;
75603;SDS011;64187;51.010;13.792;2023-04-26T03:21:10;4.75;;;2.10;;
75603;SDS011;64187;51.010;13.792;2023-04-26T03:26:09;5.45;;;2.50;;
75603;SDS011;64187;51.010;13.792;2023-04-26T03:31:08;3.33;;;2.40;;
75603;SDS011;64187;51.010;13.792;2023-04-26T03:36:07;6.00;;;2.63;;
75603;SDS011;64187;51.010;13.792;2023-04-26T03:41:06;6.20;;;2.90;;
75603;SDS011;64187;51.010;13.792;2023-04-26T03:46:05;6.60;;;2.22;;
75603;SDS011;64187;51.010;13.792;2023-04-26T03:51:04;5.53;;;2.60;;
75603;SDS011;64187;51.010;13.792;2023-04-26T03:56:04;7.20;;;2.35;;
75603;SDS011;64187;51.010;13.792;2023-04-26T04:01:04;5.05;;;1.80;;
75603;SDS011;64187;51.010;13.792;2023-04-26T04:06:03;5.30;;;1.77;;
75603;SDS011;64187;51.010;13.792;2023-04-26T04:11:02;4.05;;;1.92;;
75603;SDS011;64187;51.010;13.792;2023-04-26T04:16:03;3.05;;;2.08;;
75603;SDS011;64187;51.010;13.792;2023-04-26T04:21:02;4.07;;;2.17;;
75603;SDS011;64187;51.010;13.792;2023-04-26T04:26:01;4.13;;;1.70;;
75603;SDS011;64187;51.010;13.792;2023-04-26T04:31:00;5.97;;;1.73;;
75603;SDS011;64187;51.010;13.792;2023-04-26T04:36:00;4.18;;;2.53;;
75603;SDS011;64187;51.010;13.792;2023-04-26T04:40:59;3.83;;;1.95;;
75603;SDS011;64187;51.010;13.792;2023-04-26T04:45:58;4.43;;;2.40;;
75603;SDS011;64187;51.010;13.792;2023-04-26T04:50:56;6.63;;;2.10;;
75603;SDS011;64187;51.010;13.792;2023-04-26T04:55:56;5.90;;;1.80;;
75603;SDS011;64187;51.010;13.792;2023-04-26T05:00:55;3.13;;;1.85;;
75603;SDS011;64187;51.010;13.792;2023-04-26T05:05:59;8.07;;;2.35;;
75603;SDS011;64187;51.010;13.792;2023-04-26T05:10:59;24.23;;;3.90;;
75603;SDS011;64187;51.010;13.792;2023-04-26T05:15:59;5.43;;;2.03;;
75603;SDS011;64187;51.010;13.792;2023-04-26T05:20:58;7.15;;;2.22;;
75603;SDS011;64187;51.010;13.792;2023-04-26T05:26:00;6.68;;;2.05;;
75603;SDS011;64187;51.010;13.792;2023-04-26T05:31:28;7.95;;;2.33;;
75603;SDS011;64187;51.010;13.792;2023-04-26T05:36:47;7.15;;;2.28;;
75603;SDS011;64187;51.010;13.792;2023-04-26T05:41:46;6.70;;;2.38;;
75603;SDS011;64187;51.010;13.792;2023-04-26T05:46:45;3.65;;;1.77;;
75603;SDS011;64187;51.010;13.792;2023-04-26T05:51:45;3.97;;;1.98;;
75603;SDS011;64187;51.010;13.792;2023-04-26T05:56:44;6.75;;;2.35;;
75603;SDS011;64187;51.010;13.792;2023-04-26T06:01:43;5.38;;;2.40;;
75603;SDS011;64187;51.010;13.792;2023-04-26T06:06:42;7.93;;;2.50;;
75603;SDS011;64187;51.010;13.792;2023-04-26T06:11:41;4.97;;;2.45;;
75603;SDS011;64187;51.010;13.792;2023-04-26T06:16:39;6.75;;;2.65;;
75603;SDS011;64187;51.010;13.792;2023-04-26T06:21:41;8.93;;;2.63;;
75603;SDS011;64187;51.010;13.792;2023-04-26T06:26:40;6.95;;;2.50;;
75603;SDS011;64187;51.010;13.792;2023-04-26T06:31:39;4.20;;;1.75;;
75603;SDS011;64187;51.010;13.792;2023-04-26T06:36:39;10.52;;;2.63;;
75603;SDS011;64187;51.010;13.792;2023-04-26T06:41:38;6.78;;;1.98;;
75603;SDS011;64187;51.010;13.792;2023-04-26T06:46:40;6.68;;;1.92;;
75603;SDS011;64187;51.010;13.792;2023-04-26T06:51:39;6.88;;;1.67;;
75603;SDS011;64187;51.010;13.792;2023-04-26T06:56:38;8.55;;;2.13;;
75603;SDS011;64187;51.010;13.792;2023-04-26T07:01:37;6.25;;;2.35;;
75603;SDS011;64187;51.010;13.792;2023-04-26T07:06:37;8.30;;;2.40;;
75603;SDS011;64187;51.010;13.792;2023-04-26T07:11:37;8.93;;;2.60;;
75603;SDS011;64187;51.010;13.792;2023-04-26T07:16:35;6.55;;;2.22;;
75603;SDS011;64187;51.010;13.792;2023-04-26T07:21:34;5.97;;;2.20;;
75603;SDS011;64187;51.010;13.792;2023-04-26T07:26:34;7.57;;;2.08;;
75603;SDS011;64187;51.010;13.792;2023-04-26T07:31:34;7.72;;;2.45;;
75603;SDS011;64187;51.010;13.792;2023-04-26T07:36:33;10.27;;;2.53;;
75603;SDS011;64187;51.010;13.792;2023-04-26T07:41:32;2.97;;;1.50;;
75603;SDS011;64187;51.010;13.792;2023-04-26T07:46:34;4.40;;;1.77;;
75603;SDS011;64187;51.010;13.792;2023-04-26T07:51:34;5.05;;;1.98;;
75603;SDS011;64187;51.010;13.792;2023-04-26T07:56:33;7.03;;;1.73;;
75603;SDS011;64187;51.010;13.792;2023-04-26T08:01:32;3.75;;;1.02;;
75603;SDS011;64187;51.010;13.792;2023-04-26T08:06:31;6.05;;;2.20;;
75603;SDS011;64187;51.010;13.792;2023-04-26T08:11:30;5.97;;;1.30;;
75603;SDS011;64187;51.010;13.792;2023-04-26T08:16:30;1.77;;;1.25;;
75603;SDS011;64187;51.010;13.792;2023-04-26T08:21:29;5.13;;;2.10;;
75603;SDS011;64187;51.010;13.792;2023-04-26T08:26:29;5.28;;;1.63;;
75603;SDS011;64187;51.010;13.792;2023-04-26T08:31:28;5.88;;;2.10;;
75603;SDS011;64187;51.010;13.792;2023-04-26T08:36:26;3.50;;;1.40;;
75603;SDS011;64187;51.010;13.792;2023-04-26T08:41:25;2.63;;;1.70;;
75603;SDS011;64187;51.010;13.792;2023-04-26T08:46:25;4.68;;;1.52;;
75603;SDS011;64187;51.010;13.792;2023-04-26T08:51:26;3.33;;;1.77;;
75603;SDS011;64187;51.010;13.792;2023-04-26T08:56:28;3.40;;;1.80;;
75603;SDS011;64187;51.010;13.792;2023-04-26T09:01:27;5.22;;;1.98;;
75603;SDS011;64187;51.010;13.792;2023-04-26T09:06:28;3.15;;;1.45;;
75603;SDS011;64187;51.010;13.792;2023-04-26T09:11:27;5.63;;;2.05;;
75603;SDS011;64187;51.010;13.792;2023-04-26T09:16:36;2.10;;;1.35;;
75603;SDS011;64187;51.010;13.792;2023-04-26T09:21:40;5.15;;;1.90;;
75603;SDS011;64187;51.010;13.792;2023-04-26T09:26:42;3.20;;;1.70;;
75603;SDS011;64187;51.010;13.792;2023-04-26T09:31:44;4.07;;;1.95;;
75603;SDS011;64187;51.010;13.792;2023-04-26T09:41:56;5.55;;;2.15;;
75603;SDS011;64187;51.010;13.792;2023-04-26T09:47:05;3.42;;;2.08;;
75603;SDS011;64187;51.010;13.792;2023-04-26T09:52:07;6.32;;;2.88;;
75603;SDS011;64187;51.010;13.792;2023-04-26T09:57:06;4.40;;;1.85;;
75603;SDS011;64187;51.010;13.792;2023-04-26T10:02:24;5.60;;;2.13;;
75603;SDS011;64187;51.010;13.792;2023-04-26T10:07:25;4.57;;;1.85;;
75603;SDS011;64187;51.010;13.792;2023-04-26T10:12:23;2.35;;;2.03;;
75603;SDS011;64187;51.010;13.792;2023-04-26T10:17:22;3.10;;;1.67;;
75603;SDS011;64187;51.010;13.792;2023-04-26T10:22:26;5.30;;;2.60;;
75603;SDS011;64187;51.010;13.792;2023-04-26T10:53:16;5.85;;;2.03;;
75603;SDS011;64187;51.010;13.792;2023-04-26T10:58:25;6.07;;;2.47;;
75603;SDS011;64187;51.010;13.792;2023-04-26T11:03:29;5.57;;;2.20;;
75603;SDS011;64187;51.010;13.792;2023-04-26T11:08:29;3.05;;;1.80;;
75603;SDS011;64187;51.010;13.792;2023-04-26T11:13:42;2.45;;;2.17;;
75603;SDS011;64187;51.010;13.792;2023-04-26T11:18:42;4.35;;;2.50;;
75603;SDS011;64187;51.010;13.792;2023-04-26T11:23:53;3.38;;;2.00;;
75603;SDS011;64187;51.010;13.792;2023-04-26T11:28:52;2.63;;;1.67;;
75603;SDS011;64187;51.010;13.792;2023-04-26T11:33:52;6.35;;;2.50;;
75603;SDS011;64187;51.010;13.792;2023-04-26T11:38:51;6.00;;;2.88;;
75603;SDS011;64187;51.010;13.792;2023-04-26T11:43:51;2.75;;;2.00;;
75603;SDS011;64187;51.010;13.792;2023-04-26T11:48:50;3.60;;;2.05;;
75603;SDS011;64187;51.010;13.792;2023-04-26T11:53:50;4.40;;;1.63;;
75603;SDS011;64187;51.010;13.792;2023-04-26T11:58:50;2.45;;;2.15;;
75603;SDS011;64187;51.010;13.792;2023-04-26T12:03:51;3.60;;;2.05;;
75603;SDS011;64187;51.010;13.792;2023-04-26T12:08:51;4.65;;;2.67;;
75603;SDS011;64187;51.010;13.792;2023-04-26T12:13:51;3.85;;;2.55;;
75603;SDS011;64187;51.010;13.792;2023-04-26T12:18:50;3.63;;;2.25;;
75603;SDS011;64187;51.010;13.792;2023-04-26T12:23:52;2.75;;;2.55;;
75603;SDS011;64187;51.010;13.792;2023-04-26T12:28:51;3.85;;;2.45;;
75603;SDS011;64187;51.010;13.792;2023-04-26T12:33:50;4.38;;;2.75;;
75603;SDS011;64187;51.010;13.792;2023-04-26T12:38:49;5.30;;;2.70;;
75603;SDS011;64187;51.010;13.792;2023-04-26T12:43:48;3.33;;;2.90;;
75603;SDS011;64187;51.010;13.792;2023-04-26T12:48:46;6.70;;;3.08;;
75603;SDS011;64187;51.010;13.792;2023-04-26T12:53:45;2.83;;;2.53;;
75603;SDS011;64187;51.010;13.792;2023-04-26T12:58:44;4.68;;;2.95;;
75603;SDS011;64187;51.010;13.792;2023-04-26T13:03:44;5.20;;;3.05;;
75603;SDS011;64187;51.010;13.792;2023-04-26T13:08:43;2.83;;;1.77;;
75603;SDS011;64187;51.010;13.792;2023-04-26T13:13:42;4.65;;;2.70;;
75603;SDS011;64187;51.010;13.792;2023-04-26T13:18:42;4.03;;;2.55;;
75603;SDS011;64187;51.010;13.792;2023-04-26T13:23:41;4.32;;;2.83;;
75603;SDS011;64187;51.010;13.792;2023-04-26T13:28:40;4.50;;;2.38;;
75603;SDS011;64187;51.010;13.792;2023-04-26T13:33:39;4.32;;;2.30;;
75603;SDS011;64187;51.010;13.792;2023-04-26T13:38:38;4.88;;;2.88;;
75603;SDS011;64187;51.010;13.792;2023-04-26T13:43:37;4.80;;;2.40;;
75603;SDS011;64187;51.010;13.792;2023-04-26T13:48:36;2.80;;;2.05;;
75603;SDS011;64187;51.010;13.792;2023-04-26T13:53:35;3.35;;;2.35;;
75603;SDS011;64187;51.010;13.792;2023-04-26T13:58:34;2.78;;;2.50;;
75603;SDS011;64187;51.010;13.792;2023-04-26T14:03:34;4.70;;;2.30;;
75603;SDS011;64187;51.010;13.792;2023-04-26T14:08:33;6.25;;;2.75;;
75603;SDS011;64187;51.010;13.792;2023-04-26T14:13:34;3.03;;;2.17;;
75603;SDS011;64187;51.010;13.792;2023-04-26T14:18:33;4.03;;;2.58;;
75603;SDS011;64187;51.010;13.792;2023-04-26T14:23:32;4.47;;;2.47;;
75603;SDS011;64187;51.010;13.792;2023-04-26T14:28:30;4.00;;;2.58;;
75603;SDS011;64187;51.010;13.792;2023-04-26T14:33:29;7.53;;;2.10;;
75603;SDS011;64187;51.010;13.792;2023-04-26T14:38:29;4.35;;;2.13;;
75603;SDS011;64187;51.010;13.792;2023-04-26T14:43:29;2.90;;;2.08;;
75603;SDS011;64187;51.010;13.792;2023-04-26T14:48:27;3.95;;;2.00;;
75603;SDS011;64187;51.010;13.792;2023-04-26T14:53:26;5.95;;;2.65;;
75603;SDS011;64187;51.010;13.792;2023-04-26T14:58:25;2.28;;;1.98;;
75603;SDS011;64187;51.010;13.792;2023-04-26T15:03:24;3.83;;;2.10;;
75603;SDS011;64187;51.010;13.792;2023-04-26T15:08:24;4.97;;;2.78;;
75603;SDS011;64187;51.010;13.792;2023-04-26T15:13:24;5.35;;;2.22;;
75603;SDS011;64187;51.010;13.792;2023-04-26T15:18:23;5.95;;;2.17;;
75603;SDS011;64187;51.010;13.792;2023-04-26T15:23:22;8.80;;;2.08;;
75603;SDS011;64187;51.010;13.792;2023-04-26T15:28:21;5.97;;;2.60;;
75603;SDS011;64187;51.010;13.792;2023-04-26T15:33:19;4.20;;;2.17;;
75603;SDS011;64187;51.010;13.792;2023-04-26T15:38:18;4.18;;;2.25;;
75603;SDS011;64187;51.010;13.792;2023-04-26T15:43:17;3.15;;;2.25;;
75603;SDS011;64187;51.010;13.792;2023-04-26T15:48:16;3.60;;;2.55;;
75603;SDS011;64187;51.010;13.792;2023-04-26T15:53:15;5.78;;;2.42;;
75603;SDS011;64187;51.010;13.792;2023-04-26T15:58:15;5.25;;;2.00;;
75603;SDS011;64187;51.010;13.792;2023-04-26T16:03:14;7.47;;;1.90;;
75603;SDS011;64187;51.010;13.792;2023-04-26T16:08:14;4.43;;;2.20;;
75603;SDS011;64187;51.010;13.792;2023-04-26T16:13:30;5.65;;;2.47;;
75603;SDS011;64187;51.010;13.792;2023-04-26T16:18:31;3.60;;;2.03;;
75603;SDS011;64187;51.010;13.792;2023-04-26T16:23:30;6.20;;;2.20;;
75603;SDS011;64187;51.010;13.792;2023-04-26T16:28:29;4.85;;;2.10;;
75603;SDS011;64187;51.010;13.792;2023-04-26T16:33:28;6.45;;;2.40;;
75603;SDS011;64187;51.010;13.792;2023-04-26T16:38:27;3.55;;;1.98;;
75603;SDS011;64187;51.010;13.792;2023-04-26T16:43:26;3.92;;;1.92;;
75603;SDS011;64187;51.010;13.792;2023-04-26T16:48:26;4.35;;;1.40;;
75603;SDS011;64187;51.010;13.792;2023-04-26T16:53:25;4.43;;;2.08;;
75603;SDS011;64187;51.010;13.792;2023-04-26T16:58:25;5.07;;;2.53;;
75603;SDS011;64187;51.010;13.792;2023-04-26T17:03:24;4.68;;;2.05;;
75603;SDS011;64187;51.010;13.792;2023-04-26T17:08:23;5.20;;;2.50;;
75603;SDS011;64187;51.010;13.792;2023-04-26T17:13:23;10.57;;;3.47;;
75603;SDS011;64187;51.010;13.792;2023-04-26T17:18:26;6.13;;;2.40;;
75603;SDS011;64187;51.010;13.792;2023-04-26T17:23:25;7.00;;;2.13;;
75603;SDS011;64187;51.010;13.792;2023-04-26T17:28:25;5.22;;;2.13;;
75603;SDS011;64187;51.010;13.792;2023-04-26T17:33:24;4.50;;;2.65;;
75603;SDS011;64187;51.010;13.792;2023-04-26T17:38:23;5.50;;;2.38;;
75603;SDS011;64187;51.010;13.792;2023-04-26T17:43:22;3.60;;;2.15;;
75603;SDS011;64187;51.010;13.792;2023-04-26T17:48:21;4.88;;;2.35;;
75603;SDS011;64187;51.010;13.792;2023-04-26T17:53:20;5.28;;;2.38;;
75603;SDS011;64187;51.010;13.792;2023-04-26T17:58:20;5.30;;;2.22;;
75603;SDS011;64187;51.010;13.792;2023-04-26T18:03:19;5.20;;;2.30;;
75603;SDS011;64187;51.010;13.792;2023-04-26T18:08:18;4.47;;;2.15;;
75603;SDS011;64187;51.010;13.792;2023-04-26T18:13:18;4.13;;;2.35;;
75603;SDS011;64187;51.010;13.792;2023-04-26T18:18:17;4.75;;;2.67;;
75603;SDS011;64187;51.010;13.792;2023-04-26T18:23:16;5.45;;;2.25;;
75603;SDS011;64187;51.010;13.792;2023-04-26T18:28:16;4.60;;;2.30;;
75603;SDS011;64187;51.010;13.792;2023-04-26T18:33:14;7.00;;;2.40;;
75603;SDS011;64187;51.010;13.792;2023-04-26T18:38:13;5.90;;;2.55;;
75603;SDS011;64187;51.010;13.792;2023-04-26T18:43:13;5.53;;;2.67;;
75603;SDS011;64187;51.010;13.792;2023-04-26T18:48:11;6.35;;;2.03;;
75603;SDS011;64187;51.010;13.792;2023-04-26T18:53:10;6.97;;;2.03;;
75603;SDS011;64187;51.010;13.792;2023-04-26T18:58:09;7.88;;;3.00;;
75603;SDS011;64187;51.010;13.792;2023-04-26T19:03:08;5.47;;;2.78;;
75603;SDS011;64187;51.010;13.792;2023-04-26T19:08:07;3.60;;;2.20;;
75603;SDS011;64187;51.010;13.792;2023-04-26T19:13:06;3.45;;;2.00;;
75603;SDS011;64187;51.010;13.792;2023-04-26T19:18:05;4.03;;;2.30;;
75603;SDS011;64187;51.010;13.792;2023-04-26T19:23:04;4.78;;;2.28;;
75603;SDS011;64187;51.010;13.792;2023-04-26T19:28:03;5.93;;;2.13;;
75603;SDS011;64187;51.010;13.792;2023-04-26T19:33:02;4.80;;;2.70;;
75603;SDS011;64187;51.010;13.792;2023-04-26T19:38:01;6.32;;;3.50;;
75603;SDS011;64187;51.010;13.792;2023-04-26T19:43:02;7.05;;;3.85;;
75603;SDS011;64187;51.010;13.792;2023-04-26T19:48:01;5.65;;;2.85;;
75603;SDS011;64187;51.010;13.792;2023-04-26T19:53:00;4.07;;;2.17;;
75603;SDS011;64187;51.010;13.792;2023-04-26T19:57:59;4.05;;;2.58;;
75603;SDS011;64187;51.010;13.792;2023-04-26T20:02:58;5.93;;;3.05;;
75603;SDS011;64187;51.010;13.792;2023-04-26T20:07:57;5.88;;;2.67;;
75603;SDS011;64187;51.010;13.792;2023-04-26T20:12:56;7.07;;;2.90;;
75603;SDS011;64187;51.010;13.792;2023-04-26T20:17:56;6.57;;;2.95;;
75603;SDS011;64187;51.010;13.792;2023-04-26T20:22:55;5.25;;;2.40;;
75603;SDS011;64187;51.010;13.792;2023-04-26T20:27:54;6.90;;;3.25;;
75603;SDS011;64187;51.010;13.792;2023-04-26T20:32:54;7.78;;;3.00;;
75603;SDS011;64187;51.010;13.792;2023-04-26T20:37:53;4.75;;;3.13;;
75603;SDS011;64187;51.010;13.792;2023-04-26T20:42:51;6.45;;;2.90;;
75603;SDS011;64187;51.010;13.792;2023-04-26T20:47:50;4.07;;;2.72;;
75603;SDS011;64187;51.010;13.792;2023-04-26T20:52:49;6.22;;;3.40;;
75603;SDS011;64187;51.010;13.792;2023-04-26T20:57:48;6.75;;;3.03;;
75603;SDS011;64187;51.010;13.792;2023-04-26T21:02:47;5.32;;;2.63;;
75603;SDS011;64187;51.010;13.792;2023-04-26T21:07:46;6.35;;;2.83;;
75603;SDS011;64187;51.010;13.792;2023-04-26T21:12:45;9.95;;;4.30;;
75603;SDS011;64187;51.010;13.792;2023-04-26T21:17:44;11.05;;;4.25;;
75603;SDS011;64187;51.010;13.792;2023-04-26T21:22:43;6.50;;;3.75;;
75603;SDS011;64187;51.010;13.792;2023-04-26T21:27:42;6.40;;;3.25;;
75603;SDS011;64187;51.010;13.792;2023-04-26T21:32:41;4.50;;;3.75;;
75603;SDS011;64187;51.010;13.792;2023-04-26T21:37:40;6.63;;;3.28;;
75603;SDS011;64187;51.010;13.792;2023-04-26T21:42:39;6.90;;;3.80;;
75603;SDS011;64187;51.010;13.792;2023-04-26T21:47:39;5.32;;;3.28;;
75603;SDS011;64187;51.010;13.792;2023-04-26T21:52:38;4.30;;;2.88;;
75603;SDS011;64187;51.010;13.792;2023-04-26T21:57:37;8.32;;;3.95;;
75603;SDS011;64187;51.010;13.792;2023-04-26T22:02:36;6.20;;;3.33;;
75603;SDS011;64187;51.010;13.792;2023-04-26T22:07:36;4.00;;;3.05;;
75603;SDS011;64187;51.010;13.792;2023-04-26T22:12:35;3.50;;;2.75;;
75603;SDS011;64187;51.010;13.792;2023-04-26T22:17:34;9.23;;;4.88;;
75603;SDS011;64187;51.010;13.792;2023-04-26T22:22:33;13.48;;;4.05;;
75603;SDS011;64187;51.010;13.792;2023-04-26T22:27:32;6.78;;;3.58;;
75603;SDS011;64187;51.010;13.792;2023-04-26T22:32:31;4.55;;;3.13;;
75603;SDS011;64187;51.010;13.792;2023-04-26T22:37:29;5.97;;;3.65;;
75603;SDS011;64187;51.010;13.792;2023-04-26T22:42:28;5.60;;;3.53;;
75603;SDS011;64187;51.010;13.792;2023-04-26T22:47:30;8.95;;;4.05;;
75603;SDS011;64187;51.010;13.792;2023-04-26T22:52:29;5.18;;;3.67;;
75603;SDS011;64187;51.010;13.792;2023-04-26T22:57:29;7.60;;;3.88;;
75603;SDS011;64187;51.010;13.792;2023-04-26T23:02:29;7.55;;;4.63;;
75603;SDS011;64187;51.010;13.792;2023-04-26T23:07:28;8.30;;;4.40;;
75603;SDS011;64187;51.010;13.792;2023-04-26T23:12:26;6.60;;;3.63;;
75603;SDS011;64187;51.010;13.792;2023-04-26T23:17:25;5.60;;;3.90;;
75603;SDS011;64187;51.010;13.792;2023-04-26T23:22:25;8.98;;;3.90;;
75603;SDS011;64187;51.010;13.792;2023-04-26T23:27:25;8.38;;;4.15;;
75603;SDS011;64187;51.010;13.792;2023-04-26T23:32:24;5.88;;;3.03;;
75603;SDS011;64187;51.010;13.792;2023-04-26T23:37:23;6.22;;;3.75;;
75603;SDS011;64187;51.010;13.792;2023-04-26T23:42:22;4.78;;;3.70;;
75603;SDS011;64187;51.010;13.792;2023-04-26T23:47:21;8.57;;;3.72;;
75603;SDS011;64187;51.010;13.792;2023-04-26T23:52:20;8.30;;;3.78;;
75603;SDS011;64187;51.010;13.792;2023-04-26T23:57:19;9.00;;;3.65;;
